sensor_id;sensor_type;location;lat;lon;timestamp;P1;durP1;ratioP1;P2;durP2;ratioP2
48588;SDS011;34369;51.174;6.738;2022-11-06T00:01:44;34.63;;;32.23;;
48588;SDS011;34369;51.174;6.738;2022-11-06T00:04:16;35.57;;;33.07;;
48588;SDS011;34369;51.174;6.738;2022-11-06T00:06:49;34.53;;;31.93;;
48588;SDS011;34369;51.174;6.738;2022-11-06T00:09:20;34.97;;;32.57;;
48588;SDS011;34369;51.174;6.738;2022-11-06T00:11:55;34.90;;;32.40;;
48588;SDS011;34369;51.174;6.738;2022-11-06T00:14:28;37.33;;;34.67;;
48588;SDS011;34369;51.174;6.738;2022-11-06T00:17:01;35.23;;;32.73;;
48588;SDS011;34369;51.174;6.738;2022-11-06T00:19:33;35.13;;;32.80;;
48588;SDS011;34369;51.174;6.738;2022-11-06T00:22:05;36.03;;;33.43;;
48588;SDS011;34369;51.174;6.738;2022-11-06T00:24:38;35.27;;;32.77;;
48588;SDS011;34369;51.174;6.738;2022-11-06T00:27:12;34.70;;;32.00;;
48588;SDS011;34369;51.174;6.738;2022-11-06T00:29:44;35.53;;;33.10;;
48588;SDS011;34369;51.174;6.738;2022-11-06T00:32:19;34.90;;;32.37;;
48588;SDS011;34369;51.174;6.738;2022-11-06T00:34:51;35.20;;;32.90;;
48588;SDS011;34369;51.174;6.738;2022-11-06T00:37:23;34.97;;;32.30;;
48588;SDS011;34369;51.174;6.738;2022-11-06T00:39:56;35.07;;;32.67;;
48588;SDS011;34369;51.174;6.738;2022-11-06T00:42:31;35.50;;;33.00;;
48588;SDS011;34369;51.174;6.738;2022-11-06T00:45:03;34.73;;;32.43;;
48588;SDS011;34369;51.174;6.738;2022-11-06T00:47:38;35.43;;;32.97;;
48588;SDS011;34369;51.174;6.738;2022-11-06T00:50:13;36.17;;;33.77;;
48588;SDS011;34369;51.174;6.738;2022-11-06T00:55:21;35.57;;;33.10;;
48588;SDS011;34369;51.174;6.738;2022-11-06T00:57:55;34.60;;;32.10;;
48588;SDS011;34369;51.174;6.738;2022-11-06T01:00:29;35.05;;;32.42;;
48588;SDS011;34369;51.174;6.738;2022-11-06T01:03:02;35.33;;;32.77;;
48588;SDS011;34369;51.174;6.738;2022-11-06T01:05:35;35.80;;;33.27;;
48588;SDS011;34369;51.174;6.738;2022-11-06T01:08:08;37.27;;;34.60;;
48588;SDS011;34369;51.174;6.738;2022-11-06T01:10:40;34.90;;;31.57;;
48588;SDS011;34369;51.174;6.738;2022-11-06T01:13:15;36.33;;;33.23;;
48588;SDS011;34369;51.174;6.738;2022-11-06T01:15:47;34.33;;;31.77;;
48588;SDS011;34369;51.174;6.738;2022-11-06T01:18:19;35.60;;;33.10;;
48588;SDS011;34369;51.174;6.738;2022-11-06T01:20:53;34.13;;;31.77;;
48588;SDS011;34369;51.174;6.738;2022-11-06T01:23:24;34.30;;;31.80;;
48588;SDS011;34369;51.174;6.738;2022-11-06T01:25:57;33.27;;;30.87;;
48588;SDS011;34369;51.174;6.738;2022-11-06T01:28:32;34.60;;;31.93;;
48588;SDS011;34369;51.174;6.738;2022-11-06T01:31:05;34.10;;;31.57;;
48588;SDS011;34369;51.174;6.738;2022-11-06T01:33:40;35.50;;;33.00;;
48588;SDS011;34369;51.174;6.738;2022-11-06T01:36:13;34.80;;;32.27;;
48588;SDS011;34369;51.174;6.738;2022-11-06T01:38:48;31.93;;;29.63;;
48588;SDS011;34369;51.174;6.738;2022-11-06T01:41:24;34.75;;;32.30;;
48588;SDS011;34369;51.174;6.738;2022-11-06T01:44:04;34.80;;;32.37;;
48588;SDS011;34369;51.174;6.738;2022-11-06T01:46:53;33.57;;;31.17;;
48588;SDS011;34369;51.174;6.738;2022-11-06T01:49:25;35.17;;;32.60;;
48588;SDS011;34369;51.174;6.738;2022-11-06T01:52:02;35.67;;;33.17;;
48588;SDS011;34369;51.174;6.738;2022-11-06T01:54:39;33.60;;;31.00;;
48588;SDS011;34369;51.174;6.738;2022-11-06T01:57:14;34.60;;;32.27;;
48588;SDS011;34369;51.174;6.738;2022-11-06T01:59:48;34.80;;;32.40;;
48588;SDS011;34369;51.174;6.738;2022-11-06T02:02:23;33.95;;;31.48;;
48588;SDS011;34369;51.174;6.738;2022-11-06T02:04:56;34.67;;;32.17;;
48588;SDS011;34369;51.174;6.738;2022-11-06T02:07:28;35.10;;;32.27;;
48588;SDS011;34369;51.174;6.738;2022-11-06T02:10:00;34.43;;;32.03;;
48588;SDS011;34369;51.174;6.738;2022-11-06T02:12:43;32.93;;;30.57;;
48588;SDS011;34369;51.174;6.738;2022-11-06T02:15:41;33.90;;;31.60;;
48588;SDS011;34369;51.174;6.738;2022-11-06T02:18:28;33.93;;;31.33;;
48588;SDS011;34369;51.174;6.738;2022-11-06T02:24:41;33.40;;;31.10;;
48588;SDS011;34369;51.174;6.738;2022-11-06T02:27:31;34.33;;;31.93;;
48588;SDS011;34369;51.174;6.738;2022-11-06T02:30:05;35.00;;;32.50;;
48588;SDS011;34369;51.174;6.738;2022-11-06T02:32:42;35.87;;;33.27;;
48588;SDS011;34369;51.174;6.738;2022-11-06T02:35:22;33.53;;;31.13;;
48588;SDS011;34369;51.174;6.738;2022-11-06T02:38:00;33.33;;;30.93;;
48588;SDS011;34369;51.174;6.738;2022-11-06T02:40:39;32.10;;;29.77;;
48588;SDS011;34369;51.174;6.738;2022-11-06T02:43:18;34.27;;;31.87;;
48588;SDS011;34369;51.174;6.738;2022-11-06T02:48:29;33.20;;;30.53;;
48588;SDS011;34369;51.174;6.738;2022-11-06T02:51:09;34.30;;;31.83;;
48588;SDS011;34369;51.174;6.738;2022-11-06T02:53:45;34.13;;;31.70;;
48588;SDS011;34369;51.174;6.738;2022-11-06T02:56:20;32.47;;;30.10;;
48588;SDS011;34369;51.174;6.738;2022-11-06T02:58:57;33.25;;;30.80;;
48588;SDS011;34369;51.174;6.738;2022-11-06T03:01:34;32.03;;;29.73;;
48588;SDS011;34369;51.174;6.738;2022-11-06T03:04:11;33.67;;;31.27;;
48588;SDS011;34369;51.174;6.738;2022-11-06T03:06:50;33.40;;;31.07;;
48588;SDS011;34369;51.174;6.738;2022-11-06T03:09:28;33.50;;;31.10;;
48588;SDS011;34369;51.174;6.738;2022-11-06T03:12:03;34.63;;;31.53;;
48588;SDS011;34369;51.174;6.738;2022-11-06T03:14:51;32.20;;;29.87;;
48588;SDS011;34369;51.174;6.738;2022-11-06T03:17:30;33.80;;;31.10;;
48588;SDS011;34369;51.174;6.738;2022-11-06T03:20:13;33.43;;;31.23;;
48588;SDS011;34369;51.174;6.738;2022-11-06T03:22:53;33.33;;;30.93;;
48588;SDS011;34369;51.174;6.738;2022-11-06T03:25:37;34.30;;;31.93;;
48588;SDS011;34369;51.174;6.738;2022-11-06T03:28:19;33.67;;;31.43;;
48588;SDS011;34369;51.174;6.738;2022-11-06T03:31:00;35.13;;;32.73;;
48588;SDS011;34369;51.174;6.738;2022-11-06T03:33:37;33.37;;;30.57;;
48588;SDS011;34369;51.174;6.738;2022-11-06T03:36:14;34.28;;;31.63;;
48588;SDS011;34369;51.174;6.738;2022-11-06T03:38:51;34.87;;;32.40;;
48588;SDS011;34369;51.174;6.738;2022-11-06T03:41:30;31.87;;;29.57;;
48588;SDS011;34369;51.174;6.738;2022-11-06T03:44:10;34.97;;;32.47;;
48588;SDS011;34369;51.174;6.738;2022-11-06T03:46:52;34.80;;;32.20;;
48588;SDS011;34369;51.174;6.738;2022-11-06T03:49:31;33.63;;;31.37;;
48588;SDS011;34369;51.174;6.738;2022-11-06T03:52:10;35.30;;;32.80;;
48588;SDS011;34369;51.174;6.738;2022-11-06T03:54:48;34.43;;;32.10;;
48588;SDS011;34369;51.174;6.738;2022-11-06T03:57:29;32.47;;;30.07;;
48588;SDS011;34369;51.174;6.738;2022-11-06T04:00:10;34.90;;;32.40;;
48588;SDS011;34369;51.174;6.738;2022-11-06T04:02:45;32.63;;;30.37;;
48588;SDS011;34369;51.174;6.738;2022-11-06T04:05:34;32.30;;;30.10;;
48588;SDS011;34369;51.174;6.738;2022-11-06T04:08:10;32.60;;;30.37;;
48588;SDS011;34369;51.174;6.738;2022-11-06T04:11:03;35.23;;;32.80;;
48588;SDS011;34369;51.174;6.738;2022-11-06T04:13:56;33.17;;;30.50;;
48588;SDS011;34369;51.174;6.738;2022-11-06T04:16:32;32.23;;;30.00;;
48588;SDS011;34369;51.174;6.738;2022-11-06T04:19:09;34.23;;;31.77;;
48588;SDS011;34369;51.174;6.738;2022-11-06T04:21:55;33.67;;;31.07;;
48588;SDS011;34369;51.174;6.738;2022-11-06T04:24:46;35.60;;;33.20;;
48588;SDS011;34369;51.174;6.738;2022-11-06T04:27:52;34.73;;;32.43;;
48588;SDS011;34369;51.174;6.738;2022-11-06T04:30:45;35.50;;;32.90;;
48588;SDS011;34369;51.174;6.738;2022-11-06T04:33:33;34.00;;;31.67;;
48588;SDS011;34369;51.174;6.738;2022-11-06T04:36:21;33.77;;;31.27;;
48588;SDS011;34369;51.174;6.738;2022-11-06T04:39:05;33.80;;;31.47;;
48588;SDS011;34369;51.174;6.738;2022-11-06T04:41:46;34.80;;;31.87;;
48588;SDS011;34369;51.174;6.738;2022-11-06T04:44:28;34.03;;;31.77;;
48588;SDS011;34369;51.174;6.738;2022-11-06T04:47:08;34.23;;;31.73;;
48588;SDS011;34369;51.174;6.738;2022-11-06T04:49:44;35.47;;;33.13;;
48588;SDS011;34369;51.174;6.738;2022-11-06T04:52:22;35.30;;;32.60;;
48588;SDS011;34369;51.174;6.738;2022-11-06T04:54:59;34.60;;;31.90;;
48588;SDS011;34369;51.174;6.738;2022-11-06T04:57:31;34.90;;;32.60;;
48588;SDS011;34369;51.174;6.738;2022-11-06T05:00:05;35.77;;;33.20;;
48588;SDS011;34369;51.174;6.738;2022-11-06T05:02:41;34.10;;;31.80;;
48588;SDS011;34369;51.174;6.738;2022-11-06T05:05:13;33.03;;;30.73;;
48588;SDS011;34369;51.174;6.738;2022-11-06T05:07:46;33.30;;;31.07;;
48588;SDS011;34369;51.174;6.738;2022-11-06T05:10:18;33.03;;;30.70;;
48588;SDS011;34369;51.174;6.738;2022-11-06T05:12:51;32.50;;;30.03;;
48588;SDS011;34369;51.174;6.738;2022-11-06T05:15:23;33.63;;;31.23;;
48588;SDS011;34369;51.174;6.738;2022-11-06T05:17:57;33.47;;;31.07;;
48588;SDS011;34369;51.174;6.738;2022-11-06T05:20:29;33.20;;;30.87;;
48588;SDS011;34369;51.174;6.738;2022-11-06T05:23:04;34.63;;;32.23;;
48588;SDS011;34369;51.174;6.738;2022-11-06T05:25:36;33.50;;;30.97;;
48588;SDS011;34369;51.174;6.738;2022-11-06T05:28:10;33.23;;;31.13;;
48588;SDS011;34369;51.174;6.738;2022-11-06T05:30:44;34.50;;;32.00;;
48588;SDS011;34369;51.174;6.738;2022-11-06T05:33:16;32.27;;;30.07;;
48588;SDS011;34369;51.174;6.738;2022-11-06T05:35:48;33.00;;;30.63;;
48588;SDS011;34369;51.174;6.738;2022-11-06T05:38:21;34.90;;;32.07;;
48588;SDS011;34369;51.174;6.738;2022-11-06T05:40:54;34.17;;;31.67;;
48588;SDS011;34369;51.174;6.738;2022-11-06T05:43:27;33.77;;;31.47;;
48588;SDS011;34369;51.174;6.738;2022-11-06T05:46:00;35.10;;;32.53;;
48588;SDS011;34369;51.174;6.738;2022-11-06T05:48:33;33.33;;;30.90;;
48588;SDS011;34369;51.174;6.738;2022-11-06T05:51:06;32.47;;;30.23;;
48588;SDS011;34369;51.174;6.738;2022-11-06T05:53:40;33.03;;;30.77;;
48588;SDS011;34369;51.174;6.738;2022-11-06T05:56:12;31.73;;;29.53;;
48588;SDS011;34369;51.174;6.738;2022-11-06T05:58:44;33.30;;;31.00;;
48588;SDS011;34369;51.174;6.738;2022-11-06T06:01:17;33.07;;;30.77;;
48588;SDS011;34369;51.174;6.738;2022-11-06T06:03:50;33.23;;;30.73;;
48588;SDS011;34369;51.174;6.738;2022-11-06T06:06:23;34.20;;;31.70;;
48588;SDS011;34369;51.174;6.738;2022-11-06T06:08:59;34.40;;;31.80;;
48588;SDS011;34369;51.174;6.738;2022-11-06T06:11:32;35.00;;;32.70;;
48588;SDS011;34369;51.174;6.738;2022-11-06T06:14:04;34.50;;;32.10;;
48588;SDS011;34369;51.174;6.738;2022-11-06T06:16:37;33.00;;;30.57;;
48588;SDS011;34369;51.174;6.738;2022-11-06T06:19:09;32.30;;;30.00;;
48588;SDS011;34369;51.174;6.738;2022-11-06T06:21:43;35.83;;;33.27;;
48588;SDS011;34369;51.174;6.738;2022-11-06T06:24:18;32.77;;;30.43;;
48588;SDS011;34369;51.174;6.738;2022-11-06T06:26:50;32.23;;;30.00;;
48588;SDS011;34369;51.174;6.738;2022-11-06T06:29:23;32.60;;;30.30;;
48588;SDS011;34369;51.174;6.738;2022-11-06T06:31:55;32.53;;;30.33;;
48588;SDS011;34369;51.174;6.738;2022-11-06T06:34:28;32.63;;;30.37;;
48588;SDS011;34369;51.174;6.738;2022-11-06T06:37:00;31.60;;;29.33;;
48588;SDS011;34369;51.174;6.738;2022-11-06T06:39:34;31.33;;;29.10;;
48588;SDS011;34369;51.174;6.738;2022-11-06T06:42:07;33.60;;;31.30;;
48588;SDS011;34369;51.174;6.738;2022-11-06T06:44:41;32.73;;;30.50;;
48588;SDS011;34369;51.174;6.738;2022-11-06T06:47:14;32.87;;;30.47;;
48588;SDS011;34369;51.174;6.738;2022-11-06T06:49:47;31.83;;;29.63;;
48588;SDS011;34369;51.174;6.738;2022-11-06T06:52:20;32.67;;;30.37;;
48588;SDS011;34369;51.174;6.738;2022-11-06T06:54:55;34.20;;;31.80;;
48588;SDS011;34369;51.174;6.738;2022-11-06T06:57:28;33.63;;;31.33;;
48588;SDS011;34369;51.174;6.738;2022-11-06T07:00:00;33.37;;;30.97;;
48588;SDS011;34369;51.174;6.738;2022-11-06T07:02:33;33.97;;;31.50;;
48588;SDS011;34369;51.174;6.738;2022-11-06T07:05:06;32.10;;;29.80;;
48588;SDS011;34369;51.174;6.738;2022-11-06T07:07:40;33.00;;;30.60;;
48588;SDS011;34369;51.174;6.738;2022-11-06T07:10:15;33.87;;;31.37;;
48588;SDS011;34369;51.174;6.738;2022-11-06T07:12:48;32.73;;;30.40;;
48588;SDS011;34369;51.174;6.738;2022-11-06T07:15:21;32.30;;;29.90;;
48588;SDS011;34369;51.174;6.738;2022-11-06T07:17:53;31.37;;;29.07;;
48588;SDS011;34369;51.174;6.738;2022-11-06T07:20:25;31.57;;;29.37;;
48588;SDS011;34369;51.174;6.738;2022-11-06T07:22:58;32.70;;;30.30;;
48588;SDS011;34369;51.174;6.738;2022-11-06T07:25:37;31.67;;;29.37;;
48588;SDS011;34369;51.174;6.738;2022-11-06T07:28:09;33.67;;;31.37;;
48588;SDS011;34369;51.174;6.738;2022-11-06T07:30:42;32.37;;;30.07;;
48588;SDS011;34369;51.174;6.738;2022-11-06T07:33:14;32.27;;;29.90;;
48588;SDS011;34369;51.174;6.738;2022-11-06T07:35:46;32.60;;;30.27;;
48588;SDS011;34369;51.174;6.738;2022-11-06T07:38:19;31.53;;;29.33;;
48588;SDS011;34369;51.174;6.738;2022-11-06T07:40:52;32.83;;;30.40;;
48588;SDS011;34369;51.174;6.738;2022-11-06T07:43:24;30.30;;;27.90;;
48588;SDS011;34369;51.174;6.738;2022-11-06T07:45:57;32.70;;;30.30;;
48588;SDS011;34369;51.174;6.738;2022-11-06T07:48:31;32.13;;;29.93;;
48588;SDS011;34369;51.174;6.738;2022-11-06T07:51:04;31.73;;;29.47;;
48588;SDS011;34369;51.174;6.738;2022-11-06T07:53:38;31.47;;;29.07;;
48588;SDS011;34369;51.174;6.738;2022-11-06T07:56:13;31.93;;;29.63;;
48588;SDS011;34369;51.174;6.738;2022-11-06T07:58:46;31.67;;;29.43;;
48588;SDS011;34369;51.174;6.738;2022-11-06T08:01:18;31.23;;;28.83;;
48588;SDS011;34369;51.174;6.738;2022-11-06T08:03:50;31.67;;;29.27;;
48588;SDS011;34369;51.174;6.738;2022-11-06T08:06:23;32.30;;;29.83;;
48588;SDS011;34369;51.174;6.738;2022-11-06T08:08:55;30.97;;;28.77;;
48588;SDS011;34369;51.174;6.738;2022-11-06T08:11:29;31.53;;;29.13;;
48588;SDS011;34369;51.174;6.738;2022-11-06T08:14:02;31.53;;;29.13;;
48588;SDS011;34369;51.174;6.738;2022-11-06T08:16:34;30.20;;;27.90;;
48588;SDS011;34369;51.174;6.738;2022-11-06T08:19:06;29.50;;;27.40;;
48588;SDS011;34369;51.174;6.738;2022-11-06T08:21:38;30.77;;;28.47;;
48588;SDS011;34369;51.174;6.738;2022-11-06T08:24:10;30.20;;;27.90;;
48588;SDS011;34369;51.174;6.738;2022-11-06T08:26:44;29.30;;;26.97;;
48588;SDS011;34369;51.174;6.738;2022-11-06T08:29:16;28.43;;;26.33;;
48588;SDS011;34369;51.174;6.738;2022-11-06T08:31:48;29.40;;;27.00;;
48588;SDS011;34369;51.174;6.738;2022-11-06T08:34:20;29.03;;;26.83;;
48588;SDS011;34369;51.174;6.738;2022-11-06T08:36:53;27.97;;;25.93;;
48588;SDS011;34369;51.174;6.738;2022-11-06T08:39:25;29.40;;;27.20;;
48588;SDS011;34369;51.174;6.738;2022-11-06T08:41:58;29.42;;;27.30;;
48588;SDS011;34369;51.174;6.738;2022-11-06T08:44:30;29.80;;;27.60;;
48588;SDS011;34369;51.174;6.738;2022-11-06T08:47:03;30.03;;;27.83;;
48588;SDS011;34369;51.174;6.738;2022-11-06T08:49:39;30.00;;;27.87;;
48588;SDS011;34369;51.174;6.738;2022-11-06T08:52:11;29.57;;;27.43;;
48588;SDS011;34369;51.174;6.738;2022-11-06T08:54:43;29.87;;;27.73;;
48588;SDS011;34369;51.174;6.738;2022-11-06T08:57:16;29.17;;;26.98;;
48588;SDS011;34369;51.174;6.738;2022-11-06T08:59:49;28.90;;;26.70;;
48588;SDS011;34369;51.174;6.738;2022-11-06T09:02:21;29.07;;;27.00;;
48588;SDS011;34369;51.174;6.738;2022-11-06T09:04:53;28.20;;;26.10;;
48588;SDS011;34369;51.174;6.738;2022-11-06T09:07:26;28.30;;;26.13;;
48588;SDS011;34369;51.174;6.738;2022-11-06T09:09:58;27.90;;;25.80;;
48588;SDS011;34369;51.174;6.738;2022-11-06T09:12:31;29.00;;;26.67;;
48588;SDS011;34369;51.174;6.738;2022-11-06T09:15:03;27.73;;;25.73;;
48588;SDS011;34369;51.174;6.738;2022-11-06T09:17:40;27.90;;;26.00;;
48588;SDS011;34369;51.174;6.738;2022-11-06T09:20:14;28.73;;;26.63;;
48588;SDS011;34369;51.174;6.738;2022-11-06T09:22:48;28.10;;;25.80;;
48588;SDS011;34369;51.174;6.738;2022-11-06T09:25:20;26.77;;;24.70;;
48588;SDS011;34369;51.174;6.738;2022-11-06T09:27:56;28.38;;;26.08;;
48588;SDS011;34369;51.174;6.738;2022-11-06T09:30:29;27.52;;;25.45;;
48588;SDS011;34369;51.174;6.738;2022-11-06T09:33:06;28.90;;;26.40;;
48588;SDS011;34369;51.174;6.738;2022-11-06T09:35:38;29.08;;;26.67;;
48588;SDS011;34369;51.174;6.738;2022-11-06T09:38:11;28.25;;;25.95;;
48588;SDS011;34369;51.174;6.738;2022-11-06T09:40:46;27.50;;;25.52;;
48588;SDS011;34369;51.174;6.738;2022-11-06T09:43:25;27.77;;;25.67;;
48588;SDS011;34369;51.174;6.738;2022-11-06T09:46:11;28.40;;;26.30;;
48588;SDS011;34369;51.174;6.738;2022-11-06T09:48:54;27.95;;;25.92;;
48588;SDS011;34369;51.174;6.738;2022-11-06T09:51:32;27.60;;;25.60;;
48588;SDS011;34369;51.174;6.738;2022-11-06T09:54:11;28.75;;;26.67;;
48588;SDS011;34369;51.174;6.738;2022-11-06T09:56:51;27.95;;;25.75;;
48588;SDS011;34369;51.174;6.738;2022-11-06T09:59:32;28.52;;;26.52;;
48588;SDS011;34369;51.174;6.738;2022-11-06T10:02:13;27.00;;;24.93;;
48588;SDS011;34369;51.174;6.738;2022-11-06T10:04:57;28.20;;;26.10;;
48588;SDS011;34369;51.174;6.738;2022-11-06T10:07:38;27.85;;;25.75;;
48588;SDS011;34369;51.174;6.738;2022-11-06T10:10:13;28.52;;;26.33;;
48588;SDS011;34369;51.174;6.738;2022-11-06T10:12:52;28.88;;;26.67;;
48588;SDS011;34369;51.174;6.738;2022-11-06T10:15:56;28.23;;;25.85;;
48588;SDS011;34369;51.174;6.738;2022-11-06T10:18:37;27.67;;;25.63;;
48588;SDS011;34369;51.174;6.738;2022-11-06T10:21:21;27.80;;;25.70;;
48588;SDS011;34369;51.174;6.738;2022-11-06T10:23:56;28.20;;;26.00;;
48588;SDS011;34369;51.174;6.738;2022-11-06T10:26:32;27.92;;;25.80;;
48588;SDS011;34369;51.174;6.738;2022-11-06T10:29:20;28.40;;;25.98;;
48588;SDS011;34369;51.174;6.738;2022-11-06T10:32:28;28.75;;;26.75;;
48588;SDS011;34369;51.174;6.738;2022-11-06T10:35:37;27.65;;;25.75;;
48588;SDS011;34369;51.174;6.738;2022-11-06T10:38:14;27.63;;;25.73;;
48588;SDS011;34369;51.174;6.738;2022-11-06T10:40:51;26.67;;;24.63;;
48588;SDS011;34369;51.174;6.738;2022-11-06T10:43:28;27.02;;;25.05;;
48588;SDS011;34369;51.174;6.738;2022-11-06T10:46:05;26.63;;;24.67;;
48588;SDS011;34369;51.174;6.738;2022-11-06T10:48:50;28.60;;;26.45;;
48588;SDS011;34369;51.174;6.738;2022-11-06T10:51:35;27.38;;;25.45;;
48588;SDS011;34369;51.174;6.738;2022-11-06T10:54:30;27.23;;;25.23;;
48588;SDS011;34369;51.174;6.738;2022-11-06T10:57:19;27.65;;;25.45;;
48588;SDS011;34369;51.174;6.738;2022-11-06T10:59:59;27.67;;;25.67;;
48588;SDS011;34369;51.174;6.738;2022-11-06T11:02:35;27.73;;;25.73;;
48588;SDS011;34369;51.174;6.738;2022-11-06T11:05:15;27.65;;;25.77;;
48588;SDS011;34369;51.174;6.738;2022-11-06T11:07:49;27.35;;;25.25;;
48588;SDS011;34369;51.174;6.738;2022-11-06T11:10:25;28.17;;;25.88;;
48588;SDS011;34369;51.174;6.738;2022-11-06T11:13:00;28.90;;;26.90;;
48588;SDS011;34369;51.174;6.738;2022-11-06T11:15:38;28.40;;;26.40;;
48588;SDS011;34369;51.174;6.738;2022-11-06T11:18:17;26.95;;;24.98;;
48588;SDS011;34369;51.174;6.738;2022-11-06T11:21:02;28.50;;;26.38;;
48588;SDS011;34369;51.174;6.738;2022-11-06T11:26:17;28.75;;;26.65;;
48588;SDS011;34369;51.174;6.738;2022-11-06T11:28:54;28.20;;;26.20;;
48588;SDS011;34369;51.174;6.738;2022-11-06T11:31:28;29.85;;;27.40;;
48588;SDS011;34369;51.174;6.738;2022-11-06T11:34:03;28.02;;;25.95;;
48588;SDS011;34369;51.174;6.738;2022-11-06T11:36:47;28.42;;;26.23;;
48588;SDS011;34369;51.174;6.738;2022-11-06T11:39:25;28.20;;;26.10;;
48588;SDS011;34369;51.174;6.738;2022-11-06T11:45:05;27.95;;;25.95;;
48588;SDS011;34369;51.174;6.738;2022-11-06T11:47:47;27.15;;;25.15;;
48588;SDS011;34369;51.174;6.738;2022-11-06T11:50:25;27.95;;;25.95;;
48588;SDS011;34369;51.174;6.738;2022-11-06T11:53:04;27.65;;;25.50;;
48588;SDS011;34369;51.174;6.738;2022-11-06T11:55:42;28.20;;;26.15;;
48588;SDS011;34369;51.174;6.738;2022-11-06T11:58:19;27.33;;;25.20;;
48588;SDS011;34369;51.174;6.738;2022-11-06T12:00:57;27.08;;;25.13;;
48588;SDS011;34369;51.174;6.738;2022-11-06T12:03:32;27.30;;;25.20;;
48588;SDS011;34369;51.174;6.738;2022-11-06T12:06:11;28.27;;;26.25;;
48588;SDS011;34369;51.174;6.738;2022-11-06T12:08:49;26.77;;;24.67;;
48588;SDS011;34369;51.174;6.738;2022-11-06T12:11:24;27.45;;;25.55;;
48588;SDS011;34369;51.174;6.738;2022-11-06T12:14:16;27.65;;;25.50;;
48588;SDS011;34369;51.174;6.738;2022-11-06T12:17:07;28.05;;;25.92;;
48588;SDS011;34369;51.174;6.738;2022-11-06T12:19:47;27.30;;;25.30;;
48588;SDS011;34369;51.174;6.738;2022-11-06T12:22:24;28.25;;;26.15;;
48588;SDS011;34369;51.174;6.738;2022-11-06T12:25:02;28.52;;;26.40;;
48588;SDS011;34369;51.174;6.738;2022-11-06T12:27:41;27.33;;;25.10;;
48588;SDS011;34369;51.174;6.738;2022-11-06T12:30:17;26.50;;;24.52;;
48588;SDS011;34369;51.174;6.738;2022-11-06T12:32:59;26.75;;;24.75;;
48588;SDS011;34369;51.174;6.738;2022-11-06T12:35:41;26.80;;;25.00;;
48588;SDS011;34369;51.174;6.738;2022-11-06T12:38:20;27.77;;;25.70;;
48588;SDS011;34369;51.174;6.738;2022-11-06T12:41:02;28.67;;;26.38;;
48588;SDS011;34369;51.174;6.738;2022-11-06T12:43:41;26.60;;;24.60;;
48588;SDS011;34369;51.174;6.738;2022-11-06T12:46:19;26.52;;;24.63;;
48588;SDS011;34369;51.174;6.738;2022-11-06T12:51:59;27.17;;;25.17;;
48588;SDS011;34369;51.174;6.738;2022-11-06T12:54:47;27.38;;;25.38;;
48588;SDS011;34369;51.174;6.738;2022-11-06T12:57:40;28.93;;;26.97;;
48588;SDS011;34369;51.174;6.738;2022-11-06T13:00:34;27.77;;;25.70;;
48588;SDS011;34369;51.174;6.738;2022-11-06T13:03:20;27.80;;;25.60;;
48588;SDS011;34369;51.174;6.738;2022-11-06T13:06:12;27.50;;;25.60;;
48588;SDS011;34369;51.174;6.738;2022-11-06T13:08:53;27.63;;;25.73;;
48588;SDS011;34369;51.174;6.738;2022-11-06T13:11:32;26.92;;;25.02;;
48588;SDS011;34369;51.174;6.738;2022-11-06T13:14:15;27.50;;;25.50;;
48588;SDS011;34369;51.174;6.738;2022-11-06T13:16:58;26.15;;;24.35;;
48588;SDS011;34369;51.174;6.738;2022-11-06T13:19:36;27.45;;;25.33;;
48588;SDS011;34369;51.174;6.738;2022-11-06T13:22:23;27.08;;;24.98;;
48588;SDS011;34369;51.174;6.738;2022-11-06T13:25:02;28.08;;;25.83;;
48588;SDS011;34369;51.174;6.738;2022-11-06T13:27:46;27.60;;;25.50;;
48588;SDS011;34369;51.174;6.738;2022-11-06T13:30:26;27.00;;;25.08;;
48588;SDS011;34369;51.174;6.738;2022-11-06T13:33:01;29.33;;;27.23;;
48588;SDS011;34369;51.174;6.738;2022-11-06T13:35:38;28.63;;;26.33;;
48588;SDS011;34369;51.174;6.738;2022-11-06T13:38:13;27.75;;;25.85;;
48588;SDS011;34369;51.174;6.738;2022-11-06T13:40:51;29.05;;;26.95;;
48588;SDS011;34369;51.174;6.738;2022-11-06T13:43:27;29.70;;;27.63;;
48588;SDS011;34369;51.174;6.738;2022-11-06T13:46:09;27.10;;;25.10;;
48588;SDS011;34369;51.174;6.738;2022-11-06T13:51:37;27.45;;;25.55;;
48588;SDS011;34369;51.174;6.738;2022-11-06T13:54:17;28.10;;;26.10;;
48588;SDS011;34369;51.174;6.738;2022-11-06T14:00:35;28.20;;;26.17;;
48588;SDS011;34369;51.174;6.738;2022-11-06T14:03:30;27.15;;;25.25;;
48588;SDS011;34369;51.174;6.738;2022-11-06T14:06:23;28.25;;;26.35;;
48588;SDS011;34369;51.174;6.738;2022-11-06T14:08:57;28.42;;;26.42;;
48588;SDS011;34369;51.174;6.738;2022-11-06T14:11:33;28.63;;;26.35;;
48588;SDS011;34369;51.174;6.738;2022-11-06T14:14:10;27.77;;;25.67;;
48588;SDS011;34369;51.174;6.738;2022-11-06T14:17:07;26.85;;;24.95;;
48588;SDS011;34369;51.174;6.738;2022-11-06T14:19:59;27.17;;;25.17;;
48588;SDS011;34369;51.174;6.738;2022-11-06T14:22:35;28.20;;;26.30;;
48588;SDS011;34369;51.174;6.738;2022-11-06T14:28:29;27.58;;;25.67;;
48588;SDS011;34369;51.174;6.738;2022-11-06T14:31:03;27.65;;;25.65;;
48588;SDS011;34369;51.174;6.738;2022-11-06T14:36:33;27.60;;;25.70;;
48588;SDS011;34369;51.174;6.738;2022-11-06T14:39:08;28.50;;;26.50;;
48588;SDS011;34369;51.174;6.738;2022-11-06T14:41:53;27.42;;;25.63;;
48588;SDS011;34369;51.174;6.738;2022-11-06T14:47:26;26.83;;;24.92;;
48588;SDS011;34369;51.174;6.738;2022-11-06T14:50:04;27.65;;;25.63;;
48588;SDS011;34369;51.174;6.738;2022-11-06T14:52:57;27.35;;;25.50;;
48588;SDS011;34369;51.174;6.738;2022-11-06T14:55:33;26.67;;;24.77;;
48588;SDS011;34369;51.174;6.738;2022-11-06T14:58:16;27.25;;;25.13;;
48588;SDS011;34369;51.174;6.738;2022-11-06T15:00:52;27.83;;;25.83;;
48588;SDS011;34369;51.174;6.738;2022-11-06T15:03:28;27.37;;;25.40;;
48588;SDS011;34369;51.174;6.738;2022-11-06T15:06:07;26.77;;;24.97;;
48588;SDS011;34369;51.174;6.738;2022-11-06T15:09:11;28.07;;;26.17;;
48588;SDS011;34369;51.174;6.738;2022-11-06T15:11:57;29.00;;;26.77;;
48588;SDS011;34369;51.174;6.738;2022-11-06T15:17:27;28.63;;;26.63;;
48588;SDS011;34369;51.174;6.738;2022-11-06T15:20:06;27.33;;;25.33;;
48588;SDS011;34369;51.174;6.738;2022-11-06T15:23:03;27.20;;;25.30;;
48588;SDS011;34369;51.174;6.738;2022-11-06T15:25:48;28.92;;;26.88;;
48588;SDS011;34369;51.174;6.738;2022-11-06T15:28:38;29.02;;;27.02;;
48588;SDS011;34369;51.174;6.738;2022-11-06T15:31:15;28.50;;;26.50;;
48588;SDS011;34369;51.174;6.738;2022-11-06T15:33:52;28.77;;;26.77;;
48588;SDS011;34369;51.174;6.738;2022-11-06T15:36:31;28.83;;;26.90;;
48588;SDS011;34369;51.174;6.738;2022-11-06T15:42:13;28.77;;;26.73;;
48588;SDS011;34369;51.174;6.738;2022-11-06T15:44:48;28.90;;;26.90;;
48588;SDS011;34369;51.174;6.738;2022-11-06T15:47:21;29.20;;;27.30;;
48588;SDS011;34369;51.174;6.738;2022-11-06T15:50:07;29.00;;;27.07;;
48588;SDS011;34369;51.174;6.738;2022-11-06T15:52:45;28.37;;;25.87;;
48588;SDS011;34369;51.174;6.738;2022-11-06T15:55:25;29.30;;;27.20;;
48588;SDS011;34369;51.174;6.738;2022-11-06T15:58:07;29.37;;;27.37;;
48588;SDS011;34369;51.174;6.738;2022-11-06T16:00:56;30.30;;;28.27;;